Karan — A8NB3 — position and weather

sailwx.info

Track history (hours):
 
Tides and Currents Weather Stations Pressure Air Temp Water Temp Dewpoint Dewpoint Depression Visibility Wind Speed Wind Dir Waves Ship Positions

Karan

Last reported at 2015-Feb-27 21:14 UTC. Time now 2015-Mar-02 11:20 UTC.
Position S 34°41' E 023°48'.

Length 333 m; draft 22 m.

Type: Ship (hazmat cat B). MMSI: 636013451.

Date/timePositionNaut miles runAvg speedWind from/ knotsBaromVisibWave heightAir tempDewpointWater temp
2015-Feb-27 21:14S 34°41' E 023°48'46614.0
2015-Feb-26 12:04S 30°01' E 031°08'510.0
2015-Feb-26 11:33S 29°55' E 031°09'2 1.6
2015-Feb-26 10:33S 29°54' E 031°09'1 1.3
2015-Feb-26 09:33S 29°53' E 031°09'3 3.0
2015-Feb-26 08:33S 29°50' E 031°11'1010.1
2015-Feb-26 07:33S 29°47' E 031°22'1211.6
2015-Feb-26 06:33S 29°42' E 031°34'1413.6
2015-Feb-26 05:33S 29°37' E 031°49'  
Track history (hours):
 
Tides and Currents Weather Stations Pressure Air Temp Water Temp Dewpoint Dewpoint Depression Visibility Wind Speed Wind Dir Waves Ship Positions

Karan

Last reported at 2015-Feb-27 21:14 UTC. Time now 2015-Mar-02 11:20 UTC.
Position S 34°41' E 023°48'.

Length 333 m; draft 22 m.

Type: Ship (hazmat cat B). MMSI: 636013451.

Date/timePositionNaut miles runAvg speedWind from/ knotsBaromVisibWave heightAir tempDewpointWater temp
2015-Feb-27 21:14S 34°41' E 023°48'46614.0
2015-Feb-26 12:04S 30°01' E 031°08'510.0
2015-Feb-26 11:33S 29°55' E 031°09'2 1.6
2015-Feb-26 10:33S 29°54' E 031°09'1 1.3
2015-Feb-26 09:33S 29°53' E 031°09'3 3.0
2015-Feb-26 08:33S 29°50' E 031°11'1010.1
2015-Feb-26 07:33S 29°47' E 031°22'1211.6
2015-Feb-26 06:33S 29°42' E 031°34'1413.6
2015-Feb-26 05:33S 29°37' E 031°49'  

Dump ship's entire track history